sensor_id;sensor_type;location;lat;lon;timestamp;temperature;humidity
35491;DHT22;21605;52.068;20.806;2023-01-26T00:01:34;1.80;99.90
35491;DHT22;21605;52.068;20.806;2023-01-26T00:04:09;1.90;99.90
35491;DHT22;21605;52.068;20.806;2023-01-26T00:06:35;1.80;99.90
35491;DHT22;21605;52.068;20.806;2023-01-26T00:09:12;1.80;99.90
35491;DHT22;21605;52.068;20.806;2023-01-26T00:11:38;1.80;99.90
35491;DHT22;21605;52.068;20.806;2023-01-26T00:14:09;1.80;99.90
35491;DHT22;21605;52.068;20.806;2023-01-26T00:16:35;1.90;99.90
35491;DHT22;21605;52.068;20.806;2023-01-26T00:19:10;1.90;99.90
35491;DHT22;21605;52.068;20.806;2023-01-26T00:21:35;1.90;99.90
35491;DHT22;21605;52.068;20.806;2023-01-26T00:24:10;1.80;99.90
35491;DHT22;21605;52.068;20.806;2023-01-26T00:26:36;1.30;99.90
35491;DHT22;21605;52.068;20.806;2023-01-26T00:29:01;1.80;99.90
35491;DHT22;21605;52.068;20.806;2023-01-26T00:31:27;1.80;99.90
35491;DHT22;21605;52.068;20.806;2023-01-26T00:33:54;1.80;99.90
35491;DHT22;21605;52.068;20.806;2023-01-26T00:36:20;1.80;99.90
35491;DHT22;21605;52.068;20.806;2023-01-26T00:38:46;1.80;99.90
35491;DHT22;21605;52.068;20.806;2023-01-26T00:41:12;1.80;99.90
35491;DHT22;21605;52.068;20.806;2023-01-26T00:43:58;1.80;99.90
35491;DHT22;21605;52.068;20.806;2023-01-26T00:46:24;1.80;99.90
35491;DHT22;21605;52.068;20.806;2023-01-26T00:48:49;1.80;99.90
35491;DHT22;21605;52.068;20.806;2023-01-26T00:51:15;1.90;99.90
35491;DHT22;21605;52.068;20.806;2023-01-26T00:53:40;1.90;99.90
35491;DHT22;21605;52.068;20.806;2023-01-26T00:56:11;1.90;99.90
35491;DHT22;21605;52.068;20.806;2023-01-26T00:58:38;1.90;99.90
35491;DHT22;21605;52.068;20.806;2023-01-26T01:01:14;1.90;99.90
35491;DHT22;21605;52.068;20.806;2023-01-26T01:03:39;1.90;99.90
35491;DHT22;21605;52.068;20.806;2023-01-26T01:06:14;1.80;99.90
35491;DHT22;21605;52.068;20.806;2023-01-26T01:08:39;1.80;99.90
35491;DHT22;21605;52.068;20.806;2023-01-26T01:11:11;1.80;99.90
35491;DHT22;21605;52.068;20.806;2023-01-26T01:13:37;1.90;99.90
35491;DHT22;21605;52.068;20.806;2023-01-26T01:16:13;1.80;99.90
35491;DHT22;21605;52.068;20.806;2023-01-26T01:18:39;1.90;99.90
35491;DHT22;21605;52.068;20.806;2023-01-26T01:21:17;1.90;99.90
35491;DHT22;21605;52.068;20.806;2023-01-26T01:23:43;1.90;99.90
35491;DHT22;21605;52.068;20.806;2023-01-26T01:26:17;1.90;99.90
35491;DHT22;21605;52.068;20.806;2023-01-26T01:28:43;1.90;99.90
35491;DHT22;21605;52.068;20.806;2023-01-26T01:31:14;1.90;99.90
35491;DHT22;21605;52.068;20.806;2023-01-26T01:33:40;1.90;99.90
35491;DHT22;21605;52.068;20.806;2023-01-26T01:36:16;1.90;99.90
35491;DHT22;21605;52.068;20.806;2023-01-26T01:38:42;1.90;99.90
35491;DHT22;21605;52.068;20.806;2023-01-26T01:41:16;1.90;99.90
35491;DHT22;21605;52.068;20.806;2023-01-26T01:43:42;1.90;99.90
35491;DHT22;21605;52.068;20.806;2023-01-26T01:46:29;1.90;99.90
35491;DHT22;21605;52.068;20.806;2023-01-26T01:48:59;1.90;99.90
35491;DHT22;21605;52.068;20.806;2023-01-26T01:51:33;1.90;99.90
35491;DHT22;21605;52.068;20.806;2023-01-26T01:54:14;1.90;99.90
35491;DHT22;21605;52.068;20.806;2023-01-26T01:56:44;1.90;99.90
35491;DHT22;21605;52.068;20.806;2023-01-26T01:59:17;1.90;99.90
35491;DHT22;21605;52.068;20.806;2023-01-26T02:01:48;1.90;99.90
35491;DHT22;21605;52.068;20.806;2023-01-26T02:04:14;1.90;99.90
35491;DHT22;21605;52.068;20.806;2023-01-26T02:06:52;1.90;99.90
35491;DHT22;21605;52.068;20.806;2023-01-26T02:09:25;1.90;99.90
35491;DHT22;21605;52.068;20.806;2023-01-26T02:12:13;2.00;99.90
35491;DHT22;21605;52.068;20.806;2023-01-26T02:14:40;2.00;99.90
35491;DHT22;21605;52.068;20.806;2023-01-26T02:17:09;2.00;99.90
35491;DHT22;21605;52.068;20.806;2023-01-26T02:19:57;2.00;99.90
35491;DHT22;21605;52.068;20.806;2023-01-26T02:22:40;2.00;99.90
35491;DHT22;21605;52.068;20.806;2023-01-26T02:27:45;2.00;99.90
35491;DHT22;21605;52.068;20.806;2023-01-26T02:30:16;1.90;99.90
35491;DHT22;21605;52.068;20.806;2023-01-26T02:32:42;1.90;99.90
35491;DHT22;21605;52.068;20.806;2023-01-26T02:35:16;3.50;99.90
35491;DHT22;21605;52.068;20.806;2023-01-26T02:37:42;1.90;99.90
35491;DHT22;21605;52.068;20.806;2023-01-26T02:43:04;2.00;99.90
35491;DHT22;21605;52.068;20.806;2023-01-26T02:45:32;1.90;99.90
35491;DHT22;21605;52.068;20.806;2023-01-26T02:47:58;1.90;99.90
35491;DHT22;21605;52.068;20.806;2023-01-26T02:50:29;2.00;99.90
35491;DHT22;21605;52.068;20.806;2023-01-26T02:52:55;1.90;99.90
35491;DHT22;21605;52.068;20.806;2023-01-26T02:55:20;1.90;99.90
35491;DHT22;21605;52.068;20.806;2023-01-26T02:58:00;1.90;99.90
35491;DHT22;21605;52.068;20.806;2023-01-26T03:00:32;1.90;99.90
35491;DHT22;21605;52.068;20.806;2023-01-26T03:03:04;1.90;99.90
35491;DHT22;21605;52.068;20.806;2023-01-26T03:05:31;1.90;99.90
35491;DHT22;21605;52.068;20.806;2023-01-26T03:07:56;1.90;99.90
35491;DHT22;21605;52.068;20.806;2023-01-26T03:10:22;1.90;99.90
35491;DHT22;21605;52.068;20.806;2023-01-26T03:12:49;1.90;99.90
35491;DHT22;21605;52.068;20.806;2023-01-26T03:15:18;1.90;99.90
35491;DHT22;21605;52.068;20.806;2023-01-26T03:18:07;1.90;99.90
35491;DHT22;21605;52.068;20.806;2023-01-26T03:20:51;1.90;99.90
35491;DHT22;21605;52.068;20.806;2023-01-26T03:23:36;1.90;99.90
35491;DHT22;21605;52.068;20.806;2023-01-26T03:26:20;1.90;99.90
35491;DHT22;21605;52.068;20.806;2023-01-26T03:29:05;1.90;99.90
35491;DHT22;21605;52.068;20.806;2023-01-26T03:31:30;1.90;99.90
35491;DHT22;21605;52.068;20.806;2023-01-26T03:33:56;1.90;99.90
35491;DHT22;21605;52.068;20.806;2023-01-26T03:36:21;1.90;99.90
35491;DHT22;21605;52.068;20.806;2023-01-26T03:38:47;1.90;99.90
35491;DHT22;21605;52.068;20.806;2023-01-26T03:41:18;2.00;99.90
35491;DHT22;21605;52.068;20.806;2023-01-26T03:44:02;2.00;99.90
35491;DHT22;21605;52.068;20.806;2023-01-26T03:46:46;2.00;99.90
35491;DHT22;21605;52.068;20.806;2023-01-26T03:49:30;2.00;99.90
35491;DHT22;21605;52.068;20.806;2023-01-26T03:52:20;2.00;99.90
35491;DHT22;21605;52.068;20.806;2023-01-26T03:55:04;2.00;99.90
35491;DHT22;21605;52.068;20.806;2023-01-26T03:57:49;2.00;99.90
35491;DHT22;21605;52.068;20.806;2023-01-26T04:00:16;2.00;99.90
35491;DHT22;21605;52.068;20.806;2023-01-26T04:02:41;2.00;99.90
35491;DHT22;21605;52.068;20.806;2023-01-26T04:05:26;2.00;99.90
35491;DHT22;21605;52.068;20.806;2023-01-26T04:08:19;1.90;99.90
35491;DHT22;21605;52.068;20.806;2023-01-26T04:11:02;2.00;99.90
35491;DHT22;21605;52.068;20.806;2023-01-26T04:13:28;2.00;99.90
35491;DHT22;21605;52.068;20.806;2023-01-26T04:16:21;2.00;99.90
35491;DHT22;21605;52.068;20.806;2023-01-26T04:19:05;2.00;99.90
35491;DHT22;21605;52.068;20.806;2023-01-26T04:21:50;2.00;99.90
35491;DHT22;21605;52.068;20.806;2023-01-26T04:24:15;2.00;99.90
35491;DHT22;21605;52.068;20.806;2023-01-26T04:26:41;2.00;99.90
35491;DHT22;21605;52.068;20.806;2023-01-26T04:29:13;2.00;99.90
35491;DHT22;21605;52.068;20.806;2023-01-26T04:31:41;1.90;99.90
35491;DHT22;21605;52.068;20.806;2023-01-26T04:34:10;2.00;99.90
35491;DHT22;21605;52.068;20.806;2023-01-26T04:36:36;1.90;99.90
35491;DHT22;21605;52.068;20.806;2023-01-26T04:39:02;1.90;99.90
35491;DHT22;21605;52.068;20.806;2023-01-26T04:41:29;2.00;99.90
35491;DHT22;21605;52.068;20.806;2023-01-26T04:43:55;1.90;99.90
35491;DHT22;21605;52.068;20.806;2023-01-26T04:46:21;1.90;99.90
35491;DHT22;21605;52.068;20.806;2023-01-26T04:48:46;2.00;99.90
35491;DHT22;21605;52.068;20.806;2023-01-26T04:51:21;2.00;99.90
35491;DHT22;21605;52.068;20.806;2023-01-26T04:53:47;1.90;99.90
35491;DHT22;21605;52.068;20.806;2023-01-26T04:56:28;2.00;99.90
35491;DHT22;21605;52.068;20.806;2023-01-26T04:58:57;2.00;99.90
35491;DHT22;21605;52.068;20.806;2023-01-26T05:01:23;1.90;99.90
35491;DHT22;21605;52.068;20.806;2023-01-26T05:03:49;1.90;99.90
35491;DHT22;21605;52.068;20.806;2023-01-26T05:06:23;1.90;99.90
35491;DHT22;21605;52.068;20.806;2023-01-26T05:08:49;1.90;99.90
35491;DHT22;21605;52.068;20.806;2023-01-26T05:11:24;2.00;99.90
35491;DHT22;21605;52.068;20.806;2023-01-26T05:13:50;2.00;99.90
35491;DHT22;21605;52.068;20.806;2023-01-26T05:16:25;2.00;99.90
35491;DHT22;21605;52.068;20.806;2023-01-26T05:18:52;2.00;99.90
35491;DHT22;21605;52.068;20.806;2023-01-26T05:21:23;2.00;99.90
35491;DHT22;21605;52.068;20.806;2023-01-26T05:23:49;2.00;99.90
35491;DHT22;21605;52.068;20.806;2023-01-26T05:26:24;2.00;99.90
35491;DHT22;21605;52.068;20.806;2023-01-26T05:28:50;2.00;99.90
35491;DHT22;21605;52.068;20.806;2023-01-26T05:31:15;2.00;99.90
35491;DHT22;21605;52.068;20.806;2023-01-26T05:33:41;2.00;99.90
35491;DHT22;21605;52.068;20.806;2023-01-26T05:36:07;2.00;99.90
35491;DHT22;21605;52.068;20.806;2023-01-26T05:38:33;2.00;99.90
35491;DHT22;21605;52.068;20.806;2023-01-26T05:40:59;2.00;99.90
35491;DHT22;21605;52.068;20.806;2023-01-26T05:43:25;2.00;99.90
35491;DHT22;21605;52.068;20.806;2023-01-26T05:45:50;4.00;99.90
35491;DHT22;21605;52.068;20.806;2023-01-26T05:48:16;1.90;99.90
35491;DHT22;21605;52.068;20.806;2023-01-26T05:50:42;1.90;99.90
35491;DHT22;21605;52.068;20.806;2023-01-26T05:53:07;2.00;99.90
35491;DHT22;21605;52.068;20.806;2023-01-26T05:55:34;2.00;99.90
35491;DHT22;21605;52.068;20.806;2023-01-26T05:58:00;2.00;99.90
35491;DHT22;21605;52.068;20.806;2023-01-26T06:00:25;2.00;99.90
35491;DHT22;21605;52.068;20.806;2023-01-26T06:02:51;2.00;99.90
35491;DHT22;21605;52.068;20.806;2023-01-26T06:05:25;2.00;99.90
35491;DHT22;21605;52.068;20.806;2023-01-26T06:07:51;2.00;99.90
35491;DHT22;21605;52.068;20.806;2023-01-26T06:10:26;2.00;99.90
35491;DHT22;21605;52.068;20.806;2023-01-26T06:12:51;2.00;99.90
35491;DHT22;21605;52.068;20.806;2023-01-26T06:15:17;2.00;99.90
35491;DHT22;21605;52.068;20.806;2023-01-26T06:17:43;1.90;99.90
35491;DHT22;21605;52.068;20.806;2023-01-26T06:20:09;2.00;99.90
35491;DHT22;21605;52.068;20.806;2023-01-26T06:22:35;2.00;99.90
35491;DHT22;21605;52.068;20.806;2023-01-26T06:25:01;2.00;99.90
35491;DHT22;21605;52.068;20.806;2023-01-26T06:27:26;2.00;99.90
35491;DHT22;21605;52.068;20.806;2023-01-26T06:29:53;2.00;99.90
35491;DHT22;21605;52.068;20.806;2023-01-26T06:32:18;2.00;99.90
35491;DHT22;21605;52.068;20.806;2023-01-26T06:34:44;2.00;99.90
35491;DHT22;21605;52.068;20.806;2023-01-26T06:37:09;2.00;99.90
35491;DHT22;21605;52.068;20.806;2023-01-26T06:39:35;2.00;99.90
35491;DHT22;21605;52.068;20.806;2023-01-26T06:42:02;2.00;99.90
35491;DHT22;21605;52.068;20.806;2023-01-26T06:44:27;2.00;99.90
35491;DHT22;21605;52.068;20.806;2023-01-26T06:46:53;2.00;99.90
35491;DHT22;21605;52.068;20.806;2023-01-26T06:49:22;2.00;99.90
35491;DHT22;21605;52.068;20.806;2023-01-26T06:52:03;2.10;99.90
35491;DHT22;21605;52.068;20.806;2023-01-26T06:54:29;2.10;99.90
35491;DHT22;21605;52.068;20.806;2023-01-26T06:56:55;2.10;99.90
35491;DHT22;21605;52.068;20.806;2023-01-26T06:59:26;2.20;99.90
35491;DHT22;21605;52.068;20.806;2023-01-26T07:01:52;2.10;99.90
35491;DHT22;21605;52.068;20.806;2023-01-26T07:04:17;2.10;99.90
35491;DHT22;21605;52.068;20.806;2023-01-26T07:06:43;2.10;99.90
35491;DHT22;21605;52.068;20.806;2023-01-26T07:09:09;2.10;99.90
35491;DHT22;21605;52.068;20.806;2023-01-26T07:11:35;2.10;99.90
35491;DHT22;21605;52.068;20.806;2023-01-26T07:14:01;2.10;99.90
35491;DHT22;21605;52.068;20.806;2023-01-26T07:16:28;2.20;99.90
35491;DHT22;21605;52.068;20.806;2023-01-26T07:18:53;2.20;99.90
35491;DHT22;21605;52.068;20.806;2023-01-26T07:21:29;2.20;99.90
35491;DHT22;21605;52.068;20.806;2023-01-26T07:23:55;2.20;99.90
35491;DHT22;21605;52.068;20.806;2023-01-26T07:26:29;2.20;99.90
35491;DHT22;21605;52.068;20.806;2023-01-26T07:28:55;2.20;99.90
35491;DHT22;21605;52.068;20.806;2023-01-26T07:31:30;2.20;99.90
35491;DHT22;21605;52.068;20.806;2023-01-26T07:33:55;2.20;99.90
35491;DHT22;21605;52.068;20.806;2023-01-26T07:36:24;2.30;99.90
35491;DHT22;21605;52.068;20.806;2023-01-26T07:38:50;2.30;99.90
35491;DHT22;21605;52.068;20.806;2023-01-26T07:41:15;2.30;99.90
35491;DHT22;21605;52.068;20.806;2023-01-26T07:43:41;2.30;99.90
35491;DHT22;21605;52.068;20.806;2023-01-26T07:46:06;2.30;99.90
35491;DHT22;21605;52.068;20.806;2023-01-26T07:48:33;2.30;99.90
35491;DHT22;21605;52.068;20.806;2023-01-26T07:51:00;2.30;99.90
35491;DHT22;21605;52.068;20.806;2023-01-26T07:53:29;2.40;99.90
35491;DHT22;21605;52.068;20.806;2023-01-26T07:56:08;2.40;99.90
35491;DHT22;21605;52.068;20.806;2023-01-26T07:58:34;2.40;99.90
35491;DHT22;21605;52.068;20.806;2023-01-26T08:01:10;2.40;99.90
35491;DHT22;21605;52.068;20.806;2023-01-26T08:03:37;2.40;99.90
35491;DHT22;21605;52.068;20.806;2023-01-26T08:06:04;2.30;99.90
35491;DHT22;21605;52.068;20.806;2023-01-26T08:08:30;2.30;99.90
35491;DHT22;21605;52.068;20.806;2023-01-26T08:10:57;2.30;99.90
35491;DHT22;21605;52.068;20.806;2023-01-26T08:13:30;2.30;99.90
35491;DHT22;21605;52.068;20.806;2023-01-26T08:16:01;2.30;99.90
35491;DHT22;21605;52.068;20.806;2023-01-26T08:18:32;2.30;99.90
35491;DHT22;21605;52.068;20.806;2023-01-26T08:20:58;2.30;99.90
35491;DHT22;21605;52.068;20.806;2023-01-26T08:23:28;2.40;99.90
35491;DHT22;21605;52.068;20.806;2023-01-26T08:25:59;2.30;99.90
35491;DHT22;21605;52.068;20.806;2023-01-26T08:28:33;2.30;99.90
35491;DHT22;21605;52.068;20.806;2023-01-26T08:31:07;2.30;99.90
35491;DHT22;21605;52.068;20.806;2023-01-26T08:33:35;2.30;99.90
35491;DHT22;21605;52.068;20.806;2023-01-26T08:36:06;2.40;99.90
35491;DHT22;21605;52.068;20.806;2023-01-26T08:38:33;2.40;99.90
35491;DHT22;21605;52.068;20.806;2023-01-26T08:40:59;2.30;99.90
35491;DHT22;21605;52.068;20.806;2023-01-26T08:43:34;2.30;99.90
35491;DHT22;21605;52.068;20.806;2023-01-26T08:46:00;2.30;99.90
35491;DHT22;21605;52.068;20.806;2023-01-26T08:48:35;2.30;99.90
35491;DHT22;21605;52.068;20.806;2023-01-26T08:51:03;2.30;99.90
35491;DHT22;21605;52.068;20.806;2023-01-26T08:53:32;2.30;99.90
35491;DHT22;21605;52.068;20.806;2023-01-26T08:56:06;2.20;99.90
35491;DHT22;21605;52.068;20.806;2023-01-26T08:58:36;2.30;99.90
35491;DHT22;21605;52.068;20.806;2023-01-26T09:01:15;2.30;99.90
35491;DHT22;21605;52.068;20.806;2023-01-26T09:03:41;2.30;99.90
35491;DHT22;21605;52.068;20.806;2023-01-26T09:06:09;2.30;99.90
35491;DHT22;21605;52.068;20.806;2023-01-26T09:08:36;2.30;99.90
35491;DHT22;21605;52.068;20.806;2023-01-26T09:11:03;2.40;99.90
35491;DHT22;21605;52.068;20.806;2023-01-26T09:13:29;2.40;99.90
35491;DHT22;21605;52.068;20.806;2023-01-26T09:15:55;2.30;99.90
35491;DHT22;21605;52.068;20.806;2023-01-26T09:18:21;2.30;99.90
35491;DHT22;21605;52.068;20.806;2023-01-26T09:20:47;2.30;99.90
35491;DHT22;21605;52.068;20.806;2023-01-26T09:23:14;2.40;99.90
35491;DHT22;21605;52.068;20.806;2023-01-26T09:25:42;2.40;99.90
35491;DHT22;21605;52.068;20.806;2023-01-26T09:28:08;2.40;99.90
35491;DHT22;21605;52.068;20.806;2023-01-26T09:30:42;2.50;99.90
35491;DHT22;21605;52.068;20.806;2023-01-26T09:33:08;2.50;99.90
35491;DHT22;21605;52.068;20.806;2023-01-26T09:35:37;2.50;99.90
35491;DHT22;21605;52.068;20.806;2023-01-26T09:38:02;2.50;99.90
35491;DHT22;21605;52.068;20.806;2023-01-26T09:41:13;2.40;99.90
35491;DHT22;21605;52.068;20.806;2023-01-26T09:43:57;2.40;99.90
35491;DHT22;21605;52.068;20.806;2023-01-26T09:50:00;2.50;99.90
35491;DHT22;21605;52.068;20.806;2023-01-26T09:53:01;2.50;99.90
35491;DHT22;21605;52.068;20.806;2023-01-26T09:55:41;2.50;99.90
35491;DHT22;21605;52.068;20.806;2023-01-26T09:58:16;2.40;99.90
35491;DHT22;21605;52.068;20.806;2023-01-26T10:00:52;2.40;99.90
35491;DHT22;21605;52.068;20.806;2023-01-26T10:08:26;2.40;99.90
35491;DHT22;21605;52.068;20.806;2023-01-26T10:11:11;2.40;99.90
35491;DHT22;21605;52.068;20.806;2023-01-26T10:13:41;2.50;99.90
35491;DHT22;21605;52.068;20.806;2023-01-26T10:16:11;2.40;99.90
35491;DHT22;21605;52.068;20.806;2023-01-26T10:18:57;2.40;99.90
35491;DHT22;21605;52.068;20.806;2023-01-26T10:21:44;2.40;99.90
35491;DHT22;21605;52.068;20.806;2023-01-26T10:24:12;2.50;99.90
35491;DHT22;21605;52.068;20.806;2023-01-26T10:26:43;2.50;99.90
35491;DHT22;21605;52.068;20.806;2023-01-26T10:29:13;2.40;99.90
35491;DHT22;21605;52.068;20.806;2023-01-26T10:31:40;2.50;99.90
35491;DHT22;21605;52.068;20.806;2023-01-26T10:34:14;2.50;99.90
35491;DHT22;21605;52.068;20.806;2023-01-26T10:36:42;2.50;99.90
35491;DHT22;21605;52.068;20.806;2023-01-26T10:39:11;2.50;99.90
35491;DHT22;21605;52.068;20.806;2023-01-26T10:41:38;2.50;99.90
35491;DHT22;21605;52.068;20.806;2023-01-26T10:44:40;2.50;99.90
35491;DHT22;21605;52.068;20.806;2023-01-26T10:47:15;2.50;99.90
35491;DHT22;21605;52.068;20.806;2023-01-26T10:49:41;2.40;99.90
35491;DHT22;21605;52.068;20.806;2023-01-26T10:52:17;2.40;99.90
35491;DHT22;21605;52.068;20.806;2023-01-26T10:55:09;2.50;99.90
35491;DHT22;21605;52.068;20.806;2023-01-26T10:57:41;2.50;99.90
35491;DHT22;21605;52.068;20.806;2023-01-26T11:00:28;2.40;99.90
35491;DHT22;21605;52.068;20.806;2023-01-26T11:03:18;2.50;99.90
35491;DHT22;21605;52.068;20.806;2023-01-26T11:05:44;2.50;99.90
35491;DHT22;21605;52.068;20.806;2023-01-26T11:08:40;2.50;99.90
35491;DHT22;21605;52.068;20.806;2023-01-26T11:11:06;2.50;99.90
35491;DHT22;21605;52.068;20.806;2023-01-26T11:13:45;2.50;99.90
35491;DHT22;21605;52.068;20.806;2023-01-26T11:41:01;2.50;99.90
35491;DHT22;21605;52.068;20.806;2023-01-26T11:49:02;2.50;99.90
35491;DHT22;21605;52.068;20.806;2023-01-26T11:59:56;2.60;99.90
35491;DHT22;21605;52.068;20.806;2023-01-26T12:02:40;2.70;99.90
35491;DHT22;21605;52.068;20.806;2023-01-26T12:10:38;2.70;99.90
35491;DHT22;21605;52.068;20.806;2023-01-26T12:13:18;2.80;99.90
35491;DHT22;21605;52.068;20.806;2023-01-26T12:15:55;2.80;99.90
35491;DHT22;21605;52.068;20.806;2023-01-26T12:18:30;2.80;99.90
35491;DHT22;21605;52.068;20.806;2023-01-26T12:21:04;2.80;99.90
35491;DHT22;21605;52.068;20.806;2023-01-26T12:23:55;2.80;99.90
35491;DHT22;21605;52.068;20.806;2023-01-26T12:26:24;2.70;99.90
35491;DHT22;21605;52.068;20.806;2023-01-26T12:29:05;2.80;99.90
35491;DHT22;21605;52.068;20.806;2023-01-26T12:31:57;2.80;99.90
35491;DHT22;21605;52.068;20.806;2023-01-26T12:34:27;2.80;99.90
35491;DHT22;21605;52.068;20.806;2023-01-26T12:39:57;2.80;99.90
35491;DHT22;21605;52.068;20.806;2023-01-26T12:42:48;2.80;99.90
35491;DHT22;21605;52.068;20.806;2023-01-26T12:45:20;2.80;99.90
35491;DHT22;21605;52.068;20.806;2023-01-26T12:52:59;2.70;99.90
35491;DHT22;21605;52.068;20.806;2023-01-26T12:55:46;2.70;99.90
35491;DHT22;21605;52.068;20.806;2023-01-26T12:58:25;3.00;99.90
35491;DHT22;21605;52.068;20.806;2023-01-26T13:01:01;2.80;99.90
35491;DHT22;21605;52.068;20.806;2023-01-26T13:03:38;2.80;99.90
35491;DHT22;21605;52.068;20.806;2023-01-26T13:11:07;2.80;99.90
35491;DHT22;21605;52.068;20.806;2023-01-26T13:13:52;2.90;99.90
35491;DHT22;21605;52.068;20.806;2023-01-26T13:18:53;2.80;99.90
35491;DHT22;21605;52.068;20.806;2023-01-26T13:21:46;2.70;99.90
35491;DHT22;21605;52.068;20.806;2023-01-26T13:26:57;2.80;99.90
35491;DHT22;21605;52.068;20.806;2023-01-26T13:31:50;2.80;99.90
35491;DHT22;21605;52.068;20.806;2023-01-26T13:34:19;2.70;99.90
35491;DHT22;21605;52.068;20.806;2023-01-26T13:36:49;2.70;99.90
35491;DHT22;21605;52.068;20.806;2023-01-26T13:39:30;2.70;99.90
35491;DHT22;21605;52.068;20.806;2023-01-26T13:41:56;2.70;99.90
35491;DHT22;21605;52.068;20.806;2023-01-26T13:44:48;2.70;99.90
35491;DHT22;21605;52.068;20.806;2023-01-26T13:47:17;2.70;99.90
35491;DHT22;21605;52.068;20.806;2023-01-26T13:49:54;2.80;99.90
35491;DHT22;21605;52.068;20.806;2023-01-26T13:52:25;2.70;99.90
35491;DHT22;21605;52.068;20.806;2023-01-26T13:54:52;2.70;99.90
35491;DHT22;21605;52.068;20.806;2023-01-26T13:57:24;2.70;99.90
35491;DHT22;21605;52.068;20.806;2023-01-26T13:59:57;2.60;99.90
35491;DHT22;21605;52.068;20.806;2023-01-26T14:02:32;2.60;99.90
35491;DHT22;21605;52.068;20.806;2023-01-26T14:05:00;2.60;99.90
35491;DHT22;21605;52.068;20.806;2023-01-26T14:07:36;2.60;99.90
35491;DHT22;21605;52.068;20.806;2023-01-26T14:10:02;2.60;99.90
35491;DHT22;21605;52.068;20.806;2023-01-26T14:12:34;2.50;99.90
35491;DHT22;21605;52.068;20.806;2023-01-26T14:15:05;2.60;99.90
35491;DHT22;21605;52.068;20.806;2023-01-26T14:17:45;2.60;99.90
35491;DHT22;21605;52.068;20.806;2023-01-26T14:20:32;2.60;99.90
35491;DHT22;21605;52.068;20.806;2023-01-26T14:25:28;2.40;99.90
35491;DHT22;21605;52.068;20.806;2023-01-26T14:27:54;2.40;99.90
35491;DHT22;21605;52.068;20.806;2023-01-26T14:33:11;2.50;99.90
35491;DHT22;21605;52.068;20.806;2023-01-26T14:35:37;2.50;99.90
35491;DHT22;21605;52.068;20.806;2023-01-26T14:40:30;2.30;99.90
35491;DHT22;21605;52.068;20.806;2023-01-26T14:42:56;2.30;99.90
35491;DHT22;21605;52.068;20.806;2023-01-26T14:45:28;2.40;99.90
35491;DHT22;21605;52.068;20.806;2023-01-26T14:48:04;2.40;99.90
35491;DHT22;21605;52.068;20.806;2023-01-26T14:50:31;2.40;99.90
35491;DHT22;21605;52.068;20.806;2023-01-26T14:52:58;2.30;99.90
35491;DHT22;21605;52.068;20.806;2023-01-26T14:55:28;2.40;99.90
35491;DHT22;21605;52.068;20.806;2023-01-26T14:57:55;2.30;99.90
35491;DHT22;21605;52.068;20.806;2023-01-26T15:00:23;2.30;99.90
35491;DHT22;21605;52.068;20.806;2023-01-26T15:02:53;2.30;99.90
35491;DHT22;21605;52.068;20.806;2023-01-26T15:05:22;2.30;99.90
35491;DHT22;21605;52.068;20.806;2023-01-26T15:08:00;2.30;99.90
35491;DHT22;21605;52.068;20.806;2023-01-26T15:10:37;2.30;99.90
35491;DHT22;21605;52.068;20.806;2023-01-26T15:15:37;2.30;99.90
35491;DHT22;21605;52.068;20.806;2023-01-26T15:23:25;2.20;99.90
35491;DHT22;21605;52.068;20.806;2023-01-26T15:25:51;2.20;99.90
35491;DHT22;21605;52.068;20.806;2023-01-26T15:28:19;2.20;99.90
35491;DHT22;21605;52.068;20.806;2023-01-26T15:30:54;2.20;99.90
35491;DHT22;21605;52.068;20.806;2023-01-26T15:33:52;2.10;99.90
35491;DHT22;21605;52.068;20.806;2023-01-26T15:39:12;2.10;99.90
35491;DHT22;21605;52.068;20.806;2023-01-26T15:41:40;2.20;99.90
35491;DHT22;21605;52.068;20.806;2023-01-26T15:44:14;2.10;99.90
35491;DHT22;21605;52.068;20.806;2023-01-26T15:46:41;2.10;99.90
35491;DHT22;21605;52.068;20.806;2023-01-26T15:49:07;2.10;99.90
35491;DHT22;21605;52.068;20.806;2023-01-26T15:51:32;2.10;99.90
35491;DHT22;21605;52.068;20.806;2023-01-26T15:53:58;2.20;99.90
35491;DHT22;21605;52.068;20.806;2023-01-26T15:56:23;2.20;99.90
35491;DHT22;21605;52.068;20.806;2023-01-26T15:58:49;2.20;99.90
35491;DHT22;21605;52.068;20.806;2023-01-26T16:01:19;2.10;99.90
35491;DHT22;21605;52.068;20.806;2023-01-26T16:03:54;2.10;99.90
35491;DHT22;21605;52.068;20.806;2023-01-26T16:06:28;2.10;99.90
35491;DHT22;21605;52.068;20.806;2023-01-26T16:08:56;2.10;99.90
35491;DHT22;21605;52.068;20.806;2023-01-26T16:11:25;2.10;99.90
35491;DHT22;21605;52.068;20.806;2023-01-26T16:13:53;2.10;99.90
35491;DHT22;21605;52.068;20.806;2023-01-26T16:16:19;2.10;99.90
35491;DHT22;21605;52.068;20.806;2023-01-26T16:18:54;2.10;99.90
35491;DHT22;21605;52.068;20.806;2023-01-26T16:21:25;2.10;99.90
35491;DHT22;21605;52.068;20.806;2023-01-26T16:23:56;2.10;99.90
35491;DHT22;21605;52.068;20.806;2023-01-26T16:26:21;2.10;99.90
35491;DHT22;21605;52.068;20.806;2023-01-26T16:28:53;2.20;99.90
35491;DHT22;21605;52.068;20.806;2023-01-26T16:31:24;2.20;99.90
35491;DHT22;21605;52.068;20.806;2023-01-26T16:33:53;2.20;99.90
35491;DHT22;21605;52.068;20.806;2023-01-26T16:36:20;2.20;99.90
35491;DHT22;21605;52.068;20.806;2023-01-26T16:38:51;2.20;99.90
35491;DHT22;21605;52.068;20.806;2023-01-26T16:41:28;2.20;99.90
35491;DHT22;21605;52.068;20.806;2023-01-26T16:43:58;2.20;99.90
35491;DHT22;21605;52.068;20.806;2023-01-26T16:46:24;2.10;99.90
35491;DHT22;21605;52.068;20.806;2023-01-26T16:48:53;2.20;99.90
35491;DHT22;21605;52.068;20.806;2023-01-26T16:51:23;2.10;99.90
35491;DHT22;21605;52.068;20.806;2023-01-26T16:53:50;2.10;99.90
35491;DHT22;21605;52.068;20.806;2023-01-26T16:56:16;2.10;99.90
35491;DHT22;21605;52.068;20.806;2023-01-26T16:58:42;2.10;99.90
35491;DHT22;21605;52.068;20.806;2023-01-26T17:01:16;2.10;99.90
35491;DHT22;21605;52.068;20.806;2023-01-26T17:03:42;2.10;99.90
35491;DHT22;21605;52.068;20.806;2023-01-26T17:06:08;2.10;99.90
35491;DHT22;21605;52.068;20.806;2023-01-26T17:08:34;2.10;99.90
35491;DHT22;21605;52.068;20.806;2023-01-26T17:11:00;2.10;99.90
35491;DHT22;21605;52.068;20.806;2023-01-26T17:13:25;2.10;99.90
35491;DHT22;21605;52.068;20.806;2023-01-26T17:15:57;2.10;99.90
35491;DHT22;21605;52.068;20.806;2023-01-26T17:18:23;2.10;99.90
35491;DHT22;21605;52.068;20.806;2023-01-26T17:21:00;2.00;99.90
35491;DHT22;21605;52.068;20.806;2023-01-26T17:23:26;2.00;99.90
35491;DHT22;21605;52.068;20.806;2023-01-26T17:25:59;2.00;99.90
35491;DHT22;21605;52.068;20.806;2023-01-26T17:28:26;2.00;99.90
35491;DHT22;21605;52.068;20.806;2023-01-26T17:30:53;2.00;99.90
35491;DHT22;21605;52.068;20.806;2023-01-26T17:33:19;2.00;99.90